Time;durP1;ratioP1;P1;durP2;ratioP2;P2;SDS_P1;SDS_P2;PMS_P1;PMS_P2;Temp;Humidity;BMP_temperature;BMP_pressure;BME280_temperature;BME280_humidity;BME280_pressure;Samples;Min_cycle;Max_cycle;Signal;HPM_P1;HPM_P2
2023/06/29 00:00:11;;;;;;;26.63;17.43;;;19.50;79.00;;;;;;4987468;28;20137;-70
2023/06/29 00:02:39;;;;;;;25.83;15.98;;;19.50;79.00;;;;;;4986453;28;20147;-71
2023/06/29 00:05:09;;;;;;;28.90;17.75;;;19.50;79.00;;;;;;5008036;28;20061;-71
2023/06/29 00:07:36;;;;;;;32.00;18.25;;;19.50;79.10;;;;;;5002912;28;20097;-70
2023/06/29 00:10:03;;;;;;;29.10;18.38;;;19.60;79.00;;;;;;5006966;28;20082;-70
2023/06/29 00:12:30;;;;;;;30.40;18.33;;;19.50;79.00;;;;;;5008248;28;20089;-70
2023/06/29 00:14:57;;;;;;;32.05;18.40;;;19.50;79.00;;;;;;5005131;28;20104;-71
2023/06/29 00:17:24;;;;;;;30.77;18.35;;;19.50;79.10;;;;;;5007554;28;20108;-70
2023/06/29 00:19:51;;;;;;;28.25;18.13;;;19.60;79.10;;;;;;5006343;28;20519;-70
2023/06/29 00:22:19;;;;;;;32.50;18.80;;;19.50;79.20;;;;;;5005916;28;20050;-70
2023/06/29 00:24:52;;;;;;;31.03;18.43;;;19.50;79.20;;;;;;5007631;28;20101;-70
2023/06/29 00:27:19;;;;;;;29.33;18.58;;;19.50;79.10;;;;;;5008014;28;20051;-70
2023/06/29 00:29:45;;;;;;;29.38;18.30;;;19.50;79.20;;;;;;5008658;28;20046;-70
2023/06/29 00:32:13;;;;;;;30.77;18.33;;;19.50;79.20;;;;;;5006637;28;20517;-70
2023/06/29 00:34:40;;;;;;;27.77;17.35;;;19.50;79.20;;;;;;4990915;28;20058;-69
2023/06/29 00:37:07;;;;;;;30.67;19.37;;;19.50;79.20;;;;;;4993541;28;20074;-70
2023/06/29 00:39:36;;;;;;;27.92;17.90;;;19.50;79.30;;;;;;5011111;28;20109;-70
2023/06/29 00:42:03;;;;;;;30.35;18.13;;;19.50;79.20;;;;;;4990151;28;20057;-70
2023/06/29 00:44:30;;;;;;;32.13;18.35;;;19.50;79.10;;;;;;5009661;28;20517;-70
2023/06/29 00:46:57;;;;;;;32.67;19.42;;;19.50;79.20;;;;;;5011139;28;20353;-70
2023/06/29 00:49:24;;;;;;;31.23;19.73;;;19.50;79.20;;;;;;4989832;28;20552;-70
2023/06/29 00:51:54;;;;;;;31.38;18.55;;;19.50;79.30;;;;;;5025514;28;20055;-70
2023/06/29 00:54:21;;;;;;;28.10;17.85;;;19.50;79.30;;;;;;4989606;28;20047;-70
2023/06/29 00:56:50;;;;;;;28.40;18.55;;;19.50;79.30;;;;;;4989792;28;20061;-70
2023/06/29 00:59:17;;;;;;;27.42;17.85;;;19.50;79.20;;;;;;5007642;28;20082;-71
2023/06/29 01:01:46;;;;;;;32.40;19.27;;;19.50;79.00;;;;;;4992653;28;20406;-70
2023/06/29 01:04:24;;;;;;;29.13;18.55;;;19.50;79.20;;;;;;4992963;28;20050;-70
2023/06/29 01:06:57;;;;;;;33.42;19.23;;;19.50;79.20;;;;;;5004696;28;20194;-70
2023/06/29 01:09:25;;;;;;;27.70;18.13;;;19.50;79.30;;;;;;4973472;28;20046;-70
2023/06/29 01:11:54;;;;;;;27.83;17.55;;;19.50;79.20;;;;;;5005972;28;20047;-70
2023/06/29 01:14:24;;;;;;;30.10;18.73;;;19.50;79.20;;;;;;5008854;28;20055;-70
2023/06/29 01:16:52;;;;;;;27.30;17.50;;;19.50;79.10;;;;;;4992436;28;20050;-70
2023/06/29 01:19:28;;;;;;;29.95;18.17;;;19.50;78.70;;;;;;5009368;28;20199;-70
2023/06/29 01:22:01;;;;;;;29.83;18.13;;;19.50;79.00;;;;;;5008675;28;20050;-70
2023/06/29 01:24:37;;;;;;;33.83;19.90;;;19.40;79.00;;;;;;5009711;28;20203;-70
2023/06/29 01:27:05;;;;;;;27.80;17.77;;;19.40;79.10;;;;;;5004676;28;20134;-70
2023/06/29 01:29:32;;;;;;;28.85;18.77;;;19.50;79.00;;;;;;4989361;28;20055;-70
2023/06/29 01:32:03;;;;;;;28.73;18.02;;;19.40;79.00;;;;;;4992028;28;20053;-71
2023/06/29 01:34:32;;;;;;;31.08;18.65;;;19.40;79.10;;;;;;5010246;28;20588;-70
2023/06/29 01:37:07;;;;;;;31.58;18.63;;;19.40;79.10;;;;;;5008974;28;20057;-70
2023/06/29 01:39:42;;;;;;;31.00;18.40;;;19.40;79.10;;;;;;4992534;28;20619;-70
2023/06/29 01:42:11;;;;;;;29.40;18.52;;;19.40;78.90;;;;;;5007319;28;20134;-70
2023/06/29 01:44:38;;;;;;;29.35;18.00;;;19.40;78.70;;;;;;5008655;28;20520;-71
2023/06/29 01:47:07;;;;;;;29.15;18.95;;;19.40;78.60;;;;;;5008802;28;20555;-70
2023/06/29 01:49:35;;;;;;;31.33;18.65;;;19.40;78.50;;;;;;5009056;28;20529;-70
2023/06/29 01:52:03;;;;;;;30.53;18.30;;;19.40;78.80;;;;;;5024514;28;20082;-70
2023/06/29 01:54:30;;;;;;;29.70;18.33;;;19.40;78.80;;;;;;4992395;28;20052;-70
2023/06/29 01:56:59;;;;;;;31.08;19.35;;;19.40;78.80;;;;;;5008817;28;20054;-70
2023/06/29 01:59:26;;;;;;;30.55;18.80;;;19.40;79.00;;;;;;4990376;28;20053;-70
2023/06/29 02:01:53;;;;;;;30.60;18.58;;;19.40;78.90;;;;;;5008323;28;20066;-71
2023/06/29 02:04:20;;;;;;;30.17;18.60;;;19.40;78.90;;;;;;4991815;28;20121;-70
2023/06/29 02:06:47;;;;;;;29.90;18.98;;;19.40;78.90;;;;;;4992097;28;20185;-70
2023/06/29 02:09:14;;;;;;;30.67;18.85;;;19.40;78.90;;;;;;5008713;28;20065;-70
2023/06/29 02:11:41;;;;;;;32.47;19.38;;;19.40;78.90;;;;;;4992449;28;20150;-70
2023/06/29 02:14:09;;;;;;;28.05;19.02;;;19.40;79.00;;;;;;4992165;28;20054;-70
2023/06/29 02:16:36;;;;;;;31.73;19.83;;;19.40;79.00;;;;;;5004217;28;20141;-70
2023/06/29 02:19:03;;;;;;;30.40;19.90;;;19.40;79.10;;;;;;4988616;28;20046;-70
2023/06/29 02:21:30;;;;;;;30.38;19.55;;;19.40;79.00;;;;;;4998733;28;20053;-70
2023/06/29 02:23:57;;;;;;;31.73;20.15;;;19.40;79.10;;;;;;5009613;28;20082;-70
2023/06/29 02:26:25;;;;;;;34.17;20.40;;;19.30;79.10;;;;;;5004757;28;20131;-70
2023/06/29 02:28:52;;;;;;;32.33;20.00;;;19.30;79.20;;;;;;4972255;28;20490;-70
2023/06/29 02:31:20;;;;;;;34.70;20.75;;;19.30;79.20;;;;;;4979902;28;20347;-70
2023/06/29 02:33:50;;;;;;;32.60;19.00;;;19.30;79.30;;;;;;4987529;28;20075;-70
2023/06/29 02:36:20;;;;;;;35.97;20.88;;;19.40;79.30;;;;;;4996276;28;20050;-70
2023/06/29 02:38:47;;;;;;;31.10;19.08;;;19.30;79.40;;;;;;4991560;28;20055;-70
2023/06/29 02:41:14;;;;;;;31.50;18.87;;;19.30;79.40;;;;;;5004499;28;20589;-70
2023/06/29 02:43:41;;;;;;;32.88;20.20;;;19.30;79.40;;;;;;5005062;28;20054;-70
2023/06/29 02:46:08;;;;;;;32.75;20.67;;;19.30;79.40;;;;;;4987871;28;20142;-70
2023/06/29 02:48:40;;;;;;;34.95;21.30;;;19.30;79.50;;;;;;4988145;28;20723;-70
2023/06/29 02:51:09;;;;;;;37.08;21.85;;;19.30;79.50;;;;;;4982212;28;20050;-70
2023/06/29 02:53:36;;;;;;;34.03;20.90;;;19.30;79.50;;;;;;4991499;28;20061;-70
2023/06/29 02:56:03;;;;;;;35.67;20.55;;;19.30;79.60;;;;;;4991111;28;20056;-70
2023/06/29 02:58:30;;;;;;;35.50;21.55;;;19.30;79.70;;;;;;5007339;28;20054;-70
2023/06/29 03:00:58;;;;;;;33.78;20.05;;;19.30;79.70;;;;;;5007095;28;20058;-70
2023/06/29 03:03:27;;;;;;;31.17;20.10;;;19.30;79.70;;;;;;4991218;28;20054;-70
2023/06/29 03:05:56;;;;;;;36.93;20.63;;;19.30;79.70;;;;;;5007577;28;20201;-70
2023/06/29 03:08:23;;;;;;;36.30;21.55;;;19.30;79.70;;;;;;4986481;28;20053;-70
2023/06/29 03:10:50;;;;;;;36.05;21.45;;;19.30;79.80;;;;;;4979740;28;20161;-70
2023/06/29 03:13:17;;;;;;;34.33;20.90;;;19.20;79.80;;;;;;5008486;28;20535;-70
2023/06/29 03:15:44;;;;;;;35.75;21.77;;;19.20;79.90;;;;;;5004235;28;20502;-70
2023/06/29 03:18:11;;;;;;;35.47;21.03;;;19.20;79.90;;;;;;4989536;28;20169;-70
2023/06/29 03:20:37;;;;;;;37.28;21.05;;;19.30;80.00;;;;;;4995080;28;20054;-70
2023/06/29 03:23:06;;;;;;;36.65;22.05;;;19.30;80.00;;;;;;5006945;28;20363;-70
2023/06/29 03:25:33;;;;;;;35.35;21.52;;;19.30;80.00;;;;;;5022828;28;20145;-70
2023/06/29 03:28:00;;;;;;;35.85;21.67;;;19.30;80.00;;;;;;5008655;28;20054;-70
2023/06/29 03:30:26;;;;;;;35.13;21.07;;;19.30;80.10;;;;;;5008252;28;20054;-70
2023/06/29 03:32:54;;;;;;;31.83;21.10;;;19.30;80.10;;;;;;5008754;28;20054;-70
2023/06/29 03:35:21;;;;;;;37.85;21.20;;;19.30;80.10;;;;;;5008647;28;20081;-70
2023/06/29 03:37:47;;;;;;;33.70;20.40;;;19.30;80.10;;;;;;4991007;28;20512;-70
2023/06/29 03:40:16;;;;;;;34.67;20.95;;;19.30;80.10;;;;;;5007996;28;20054;-70
2023/06/29 03:42:43;;;;;;;34.80;20.30;;;19.30;80.20;;;;;;5006073;28;20129;-70
2023/06/29 03:45:10;;;;;;;31.58;19.52;;;19.30;80.10;;;;;;5008332;28;20563;-70
2023/06/29 03:47:37;;;;;;;33.35;21.08;;;19.30;80.10;;;;;;5008456;28;20058;-70
2023/06/29 03:50:05;;;;;;;33.92;21.33;;;19.30;80.20;;;;;;5006976;28;20057;-70
2023/06/29 03:52:32;;;;;;;32.60;20.38;;;19.30;80.30;;;;;;5008052;28;20343;-70
2023/06/29 03:54:58;;;;;;;31.73;20.20;;;19.30;80.30;;;;;;5013877;28;20076;-70
2023/06/29 03:57:27;;;;;;;34.13;20.48;;;19.30;80.30;;;;;;5007526;28;20137;-70
2023/06/29 03:59:54;;;;;;;33.67;20.65;;;19.30;80.30;;;;;;5005116;28;20047;-70
2023/06/29 04:02:20;;;;;;;33.78;19.10;;;19.30;80.30;;;;;;5004992;28;20485;-69
2023/06/29 04:04:47;;;;;;;33.78;19.83;;;19.30;80.30;;;;;;5005195;28;20054;-69
2023/06/29 04:07:14;;;;;;;31.97;20.50;;;19.30;80.30;;;;;;5005298;28;20048;-69
2023/06/29 04:09:41;;;;;;;35.45;20.38;;;19.30;80.40;;;;;;5007031;28;20046;-69
2023/06/29 04:12:09;;;;;;;36.28;21.52;;;19.30;80.30;;;;;;5009444;28;20062;-69
2023/06/29 04:14:37;;;;;;;30.60;19.90;;;19.30;80.40;;;;;;5010209;28;20600;-69
2023/06/29 04:17:04;;;;;;;34.92;20.08;;;19.30;80.40;;;;;;5010341;28;20042;-69
2023/06/29 04:19:31;;;;;;;35.13;19.83;;;19.30;80.50;;;;;;5011476;28;20050;-69
2023/06/29 04:21:58;;;;;;;32.80;20.00;;;19.30;80.50;;;;;;5010876;28;20473;-69
2023/06/29 04:24:25;;;;;;;32.38;20.77;;;19.30;80.60;;;;;;5009803;28;20824;-69
2023/06/29 04:26:52;;;;;;;33.80;20.25;;;19.30;80.50;;;;;;5010125;28;20493;-69
2023/06/29 04:29:19;;;;;;;37.00;20.33;;;19.30;80.70;;;;;;5011699;28;20065;-69
2023/06/29 04:31:47;;;;;;;33.53;20.40;;;19.30;80.70;;;;;;5009889;28;20076;-69
2023/06/29 04:34:17;;;;;;;35.08;20.88;;;19.30;80.70;;;;;;5010358;28;20069;-69
2023/06/29 04:36:45;;;;;;;33.25;20.50;;;19.30;80.70;;;;;;5011314;28;20521;-69
2023/06/29 04:39:13;;;;;;;35.42;21.50;;;19.30;80.80;;;;;;5011068;28;20046;-69
2023/06/29 04:41:40;;;;;;;39.35;22.30;;;19.30;80.80;;;;;;5009676;28;20472;-69
2023/06/29 04:44:08;;;;;;;37.43;21.00;;;19.30;81.00;;;;;;4990193;28;20142;-69
2023/06/29 04:46:38;;;;;;;35.30;21.60;;;19.30;81.00;;;;;;4975570;28;20577;-69
2023/06/29 04:49:07;;;;;;;35.50;21.30;;;19.30;81.10;;;;;;4989900;28;20051;-69
2023/06/29 04:51:35;;;;;;;37.25;21.15;;;19.30;81.10;;;;;;5000012;28;20078;-69
2023/06/29 04:54:02;;;;;;;36.20;20.75;;;19.30;81.20;;;;;;5011084;28;20051;-69
2023/06/29 04:56:29;;;;;;;38.33;21.60;;;19.40;81.20;;;;;;4989878;28;20496;-69
2023/06/29 04:58:56;;;;;;;33.83;20.08;;;19.40;81.20;;;;;;4993168;28;20154;-69
2023/06/29 05:01:23;;;;;;;34.45;20.58;;;19.40;81.20;;;;;;5008840;28;20404;-69
2023/06/29 05:03:50;;;;;;;37.03;21.65;;;19.40;81.20;;;;;;5008800;28;20591;-69
2023/06/29 05:06:18;;;;;;;33.30;21.20;;;19.40;81.20;;;;;;5004228;28;20051;-69
2023/06/29 05:08:45;;;;;;;34.33;21.07;;;19.40;81.20;;;;;;5009547;28;20105;-69
2023/06/29 05:11:12;;;;;;;35.72;19.75;;;19.40;81.20;;;;;;5009083;28;20507;-69
2023/06/29 05:13:39;;;;;;;34.10;20.55;;;19.40;81.40;;;;;;5001110;28;20340;-69
2023/06/29 05:16:06;;;;;;;31.27;19.80;;;19.50;81.20;;;;;;4999188;28;20046;-69
2023/06/29 05:18:33;;;;;;;36.63;20.77;;;19.50;81.30;;;;;;4995884;28;20046;-69
2023/06/29 05:21:00;;;;;;;33.60;20.53;;;19.50;81.30;;;;;;5000246;28;20054;-69
2023/06/29 05:23:29;;;;;;;32.10;19.23;;;19.50;81.40;;;;;;5000440;28;20126;-69
2023/06/29 05:25:55;;;;;;;31.13;19.75;;;19.50;81.20;;;;;;5012546;28;20055;-69
2023/06/29 05:28:22;;;;;;;31.77;19.35;;;19.50;81.30;;;;;;4997430;28;20158;-69
2023/06/29 05:30:49;;;;;;;32.65;19.25;;;19.50;81.40;;;;;;4996618;28;20082;-69
2023/06/29 05:33:16;;;;;;;33.73;19.60;;;19.50;81.30;;;;;;5001909;28;20133;-69
2023/06/29 05:35:43;;;;;;;31.83;18.27;;;19.60;81.20;;;;;;5003405;28;20057;-69
2023/06/29 05:38:10;;;;;;;32.28;18.67;;;19.60;81.20;;;;;;5005631;28;20051;-69
2023/06/29 05:40:39;;;;;;;32.20;19.10;;;19.70;81.10;;;;;;5001229;28;20058;-69
2023/06/29 05:43:06;;;;;;;29.70;18.08;;;19.70;81.20;;;;;;5004594;28;20686;-70
2023/06/29 05:45:32;;;;;;;31.77;18.70;;;19.70;81.10;;;;;;4989874;28;20925;-69
2023/06/29 05:48:03;;;;;;;31.42;18.98;;;19.70;81.00;;;;;;5007015;28;20056;-69
2023/06/29 05:50:30;;;;;;;30.20;17.08;;;19.70;81.00;;;;;;5000790;28;20046;-69
2023/06/29 05:52:57;;;;;;;28.42;16.85;;;19.70;81.00;;;;;;4992685;28;20493;-69
2023/06/29 05:55:24;;;;;;;32.53;19.02;;;19.80;80.80;;;;;;4996534;28;20133;-69
2023/06/29 05:57:52;;;;;;;32.50;18.10;;;19.80;80.70;;;;;;5000023;28;20061;-69
2023/06/29 06:00:20;;;;;;;29.95;16.85;;;19.90;80.70;;;;;;5000681;28;20206;-69
2023/06/29 06:02:47;;;;;;;27.02;16.17;;;19.90;80.60;;;;;;5004951;28;20137;-69
2023/06/29 06:05:14;;;;;;;30.98;17.10;;;19.90;80.60;;;;;;5021712;28;20145;-69
2023/06/29 06:07:41;;;;;;;30.45;17.27;;;19.90;80.50;;;;;;5005659;28;20047;-69
2023/06/29 06:10:08;;;;;;;29.37;17.67;;;19.90;80.40;;;;;;5005328;28;20080;-69
2023/06/29 06:12:35;;;;;;;29.13;17.27;;;20.00;80.20;;;;;;5003086;28;20051;-69
2023/06/29 06:15:05;;;;;;;30.35;18.00;;;20.00;80.10;;;;;;5002938;28;20050;-69
2023/06/29 06:17:32;;;;;;;30.38;17.17;;;20.00;80.00;;;;;;5003097;28;20055;-69
2023/06/29 06:19:59;;;;;;;31.08;18.05;;;20.00;79.90;;;;;;4999799;28;20043;-69
2023/06/29 06:22:26;;;;;;;30.97;17.93;;;20.00;79.90;;;;;;4999893;28;20600;-69
2023/06/29 06:24:53;;;;;;;29.70;18.35;;;20.00;80.00;;;;;;4993094;28;20115;-70
2023/06/29 06:27:20;;;;;;;31.25;17.90;;;20.00;80.00;;;;;;5001935;28;20137;-69
2023/06/29 06:29:47;;;;;;;30.55;18.50;;;20.10;80.00;;;;;;5002607;28;20125;-69
2023/06/29 06:32:15;;;;;;;34.50;18.70;;;20.10;80.00;;;;;;5004389;28;20457;-69
2023/06/29 06:34:43;;;;;;;33.30;18.73;;;20.10;80.10;;;;;;5002833;28;20054;-69
2023/06/29 06:37:10;;;;;;;31.75;18.67;;;20.10;80.10;;;;;;5003323;28;20049;-69
2023/06/29 06:39:37;;;;;;;32.17;18.02;;;20.10;80.20;;;;;;5001262;28;20690;-69
2023/06/29 06:42:05;;;;;;;30.40;18.50;;;20.10;80.20;;;;;;5002628;28;20058;-69
2023/06/29 06:44:37;;;;;;;32.47;18.30;;;20.10;80.30;;;;;;5008080;28;20054;-69
2023/06/29 06:47:04;;;;;;;30.67;18.07;;;20.10;80.40;;;;;;5009499;28;20044;-69
2023/06/29 06:49:32;;;;;;;36.63;19.70;;;20.10;80.40;;;;;;5018615;28;20086;-69
2023/06/29 06:52:02;;;;;;;31.75;17.85;;;20.10;80.50;;;;;;5008500;28;20050;-69
2023/06/29 06:54:29;;;;;;;29.13;17.35;;;20.10;80.50;;;;;;5005390;28;20516;-68
2023/06/29 06:56:55;;;;;;;30.20;18.13;;;20.10;80.40;;;;;;5001904;28;20539;-69
2023/06/29 06:59:22;;;;;;;31.97;17.57;;;20.10;80.40;;;;;;5006008;28;20117;-69
2023/06/29 07:01:49;;;;;;;29.50;17.20;;;20.10;80.50;;;;;;5014784;28;20177;-69
2023/06/29 07:04:16;;;;;;;31.48;18.25;;;20.10;80.50;;;;;;5008946;28;20073;-69
2023/06/29 07:06:46;;;;;;;29.45;17.95;;;20.10;80.60;;;;;;5007015;28;20052;-70
2023/06/29 07:09:13;;;;;;;32.03;18.48;;;20.10;80.60;;;;;;5008483;28;20055;-69
2023/06/29 07:11:41;;;;;;;29.63;17.23;;;20.10;80.60;;;;;;5007938;28;20050;-69
2023/06/29 07:14:08;;;;;;;31.73;17.98;;;20.10;80.60;;;;;;5005577;28;20046;-69
2023/06/29 07:16:35;;;;;;;30.77;17.75;;;20.10;80.70;;;;;;5013850;28;20093;-69
2023/06/29 07:19:04;;;;;;;32.13;17.98;;;20.10;80.80;;;;;;5005404;28;20157;-69
2023/06/29 07:21:31;;;;;;;33.90;18.38;;;20.10;80.90;;;;;;4986144;28;20415;-69
2023/06/29 07:23:59;;;;;;;31.33;18.13;;;20.10;80.90;;;;;;5004144;28;20494;-69
2023/06/29 07:26:26;;;;;;;30.38;17.92;;;20.10;81.00;;;;;;5002926;28;20050;-69
2023/06/29 07:28:53;;;;;;;30.65;18.13;;;20.10;80.90;;;;;;5004462;28;20173;-69
2023/06/29 07:31:24;;;;;;;31.95;18.23;;;20.10;80.90;;;;;;4998773;28;20046;-69
2023/06/29 07:33:51;;;;;;;30.58;18.77;;;20.10;81.00;;;;;;4986012;28;20066;-69
2023/06/29 07:36:18;;;;;;;33.77;18.43;;;20.10;80.90;;;;;;5007969;28;20085;-70
2023/06/29 07:38:45;;;;;;;33.72;18.98;;;20.20;80.90;;;;;;4987457;28;20042;-69
2023/06/29 07:41:13;;;;;;;31.30;18.92;;;20.20;81.10;;;;;;5005092;28;20049;-69
2023/06/29 07:43:41;;;;;;;29.42;18.27;;;20.20;81.20;;;;;;5009640;28;20049;-69
2023/06/29 07:46:08;;;;;;;33.20;18.60;;;20.30;81.20;;;;;;5001135;28;20054;-70
2023/06/29 07:48:35;;;;;;;30.73;18.10;;;20.30;81.20;;;;;;5011500;28;21034;-69
2023/06/29 07:51:03;;;;;;;31.80;18.13;;;20.30;81.10;;;;;;5006208;28;20406;-69
2023/06/29 07:53:30;;;;;;;30.52;18.42;;;20.30;81.20;;;;;;5004482;28;20177;-69
2023/06/29 07:55:57;;;;;;;32.58;19.38;;;20.30;81.10;;;;;;4983221;28;20133;-70
2023/06/29 07:58:25;;;;;;;35.50;20.88;;;20.30;81.20;;;;;;4997814;28;20054;-70
2023/06/29 08:00:52;;;;;;;35.53;20.90;;;20.30;81.20;;;;;;4998609;28;20081;-70
2023/06/29 08:03:19;;;;;;;34.95;21.65;;;20.40;81.10;;;;;;5000489;28;20062;-70
2023/06/29 08:05:46;;;;;;;40.53;23.88;;;20.40;81.20;;;;;;4997663;28;20077;-70
2023/06/29 08:08:13;;;;;;;41.45;24.52;;;20.50;81.00;;;;;;4998725;28;20050;-69
2023/06/29 08:10:41;;;;;;;41.78;23.27;;;20.50;81.00;;;;;;4998052;28;20461;-69
2023/06/29 08:13:09;;;;;;;41.77;23.77;;;20.50;80.80;;;;;;4997348;28;20161;-69
2023/06/29 08:15:37;;;;;;;39.08;22.23;;;20.50;80.80;;;;;;5008800;28;20051;-69
2023/06/29 08:18:04;;;;;;;41.33;23.13;;;20.50;80.80;;;;;;5005983;28;20061;-70
2023/06/29 08:20:31;;;;;;;40.13;22.77;;;20.50;80.80;;;;;;5010196;28;20663;-70
2023/06/29 08:22:58;;;;;;;42.60;24.30;;;20.50;80.80;;;;;;4997788;28;20520;-70
2023/06/29 08:25:25;;;;;;;36.83;22.83;;;20.50;80.90;;;;;;5007895;28;20441;-70
2023/06/29 08:27:51;;;;;;;42.45;25.23;;;20.50;81.00;;;;;;5009585;28;20050;-70
2023/06/29 08:30:19;;;;;;;43.95;25.85;;;20.50;81.10;;;;;;5006395;28;20065;-70
2023/06/29 08:32:48;;;;;;;36.28;22.10;;;20.60;81.00;;;;;;5005270;28;20061;-70
2023/06/29 08:35:15;;;;;;;37.55;22.73;;;20.60;81.00;;;;;;4983140;28;20051;-69
2023/06/29 08:37:42;;;;;;;40.87;24.33;;;20.60;81.00;;;;;;5008250;28;20042;-70
2023/06/29 08:40:11;;;;;;;40.00;21.20;;;20.70;81.10;;;;;;5011512;28;20058;-70
2023/06/29 08:42:38;;;;;;;35.22;20.13;;;20.70;80.60;;;;;;5006959;28;20129;-70
2023/06/29 08:45:06;;;;;;;34.47;21.23;;;20.70;80.30;;;;;;5005928;28;20043;-70
2023/06/29 08:47:34;;;;;;;37.15;19.15;;;20.80;80.00;;;;;;5008425;28;20054;-69
2023/06/29 08:50:05;;;;;;;33.77;20.10;;;20.80;79.40;;;;;;4980986;28;20062;-69
2023/06/29 08:52:34;;;;;;;40.72;20.95;;;20.80;79.00;;;;;;5018357;28;20138;-70
2023/06/29 08:55:02;;;;;;;36.55;20.40;;;20.90;78.30;;;;;;5022231;28;20069;-69
2023/06/29 08:57:31;;;;;;;38.20;22.20;;;20.90;77.90;;;;;;5008696;28;20059;-69
2023/06/29 08:59:59;;;;;;;37.28;20.80;;;20.90;77.60;;;;;;5009636;28;20121;-70
2023/06/29 09:02:27;;;;;;;35.67;21.47;;;20.90;76.90;;;;;;5009155;28;20183;-69
2023/06/29 09:04:55;;;;;;;36.15;21.33;;;20.90;76.90;;;;;;5010203;28;20436;-69
2023/06/29 09:07:23;;;;;;;37.63;19.98;;;21.00;76.20;;;;;;5010546;28;20050;-69
2023/06/29 09:09:50;;;;;;;37.15;20.20;;;21.00;75.90;;;;;;5009627;28;20560;-70
2023/06/29 09:12:18;;;;;;;38.92;20.88;;;21.00;76.00;;;;;;5007340;28;20149;-70
2023/06/29 09:14:47;;;;;;;33.93;19.90;;;21.00;76.00;;;;;;5004194;28;20062;-70
2023/06/29 09:17:16;;;;;;;37.83;20.60;;;21.00;75.90;;;;;;5000695;28;20491;-70
2023/06/29 09:19:51;;;;;;;36.03;19.70;;;21.00;75.50;;;;;;5009540;28;20109;-70
2023/06/29 09:22:21;;;;;;;37.47;20.25;;;21.00;75.20;;;;;;5010298;28;20054;-70
2023/06/29 09:24:50;;;;;;;31.23;19.30;;;21.00;75.30;;;;;;5008791;28;20046;-70
2023/06/29 09:27:17;;;;;;;32.07;18.67;;;21.00;75.40;;;;;;5005335;28;20506;-70
2023/06/29 09:29:50;;;;;;;36.45;20.00;;;21.00;75.50;;;;;;5005096;28;20343;-70
2023/06/29 09:32:18;;;;;;;34.65;18.70;;;21.00;75.50;;;;;;4990996;28;20046;-71
2023/06/29 09:34:47;;;;;;;35.22;19.73;;;21.10;75.50;;;;;;5013371;28;20046;-71
2023/06/29 09:37:14;;;;;;;32.72;20.42;;;21.10;75.40;;;;;;4987737;28;20614;-72
2023/06/29 09:39:58;;;;;;;32.43;18.37;;;21.10;75.30;;;;;;5004825;28;20288;-72
2023/06/29 09:42:25;;;;;;;30.02;18.90;;;21.10;75.00;;;;;;4996397;28;20059;-72
2023/06/29 09:44:52;;;;;;;31.90;19.30;;;21.10;75.00;;;;;;4994431;28;20050;-72
2023/06/29 09:47:19;;;;;;;32.47;19.38;;;21.10;74.50;;;;;;4996381;28;20055;-72
2023/06/29 09:49:47;;;;;;;34.10;20.20;;;21.10;74.60;;;;;;4999457;28;20062;-72
2023/06/29 09:52:15;;;;;;;32.53;19.67;;;21.10;74.50;;;;;;4999776;28;20113;-72
2023/06/29 09:54:42;;;;;;;33.72;18.45;;;21.10;74.50;;;;;;5002531;28;20073;-71
2023/06/29 09:57:11;;;;;;;34.63;19.38;;;21.10;74.80;;;;;;5005379;28;20054;-72
2023/06/29 09:59:39;;;;;;;34.25;19.95;;;21.10;75.00;;;;;;5011229;28;20062;-72
2023/06/29 10:02:07;;;;;;;34.95;19.15;;;21.10;74.90;;;;;;5008719;28;20683;-71
2023/06/29 10:04:34;;;;;;;31.40;17.33;;;21.10;74.70;;;;;;5005422;28;20529;-72
2023/06/29 10:07:07;;;;;;;31.17;18.75;;;21.10;74.90;;;;;;4999697;28;20616;-70
2023/06/29 10:09:38;;;;;;;31.55;17.42;;;21.10;75.10;;;;;;5006685;28;20058;-70
2023/06/29 10:12:08;;;;;;;30.17;18.25;;;21.10;75.10;;;;;;5012788;28;20053;-70
2023/06/29 10:14:37;;;;;;;32.70;18.27;;;21.10;75.10;;;;;;5000572;28;20050;-70
2023/06/29 10:17:08;;;;;;;33.30;17.83;;;21.10;75.00;;;;;;4997703;28;20056;-70
2023/06/29 10:19:38;;;;;;;29.27;16.77;;;21.10;75.00;;;;;;5006871;28;20190;-70
2023/06/29 10:22:11;;;;;;;31.25;18.40;;;21.10;74.90;;;;;;5006145;28;20057;-70
2023/06/29 10:24:41;;;;;;;31.58;18.35;;;21.10;74.70;;;;;;5006682;28;20061;-70
2023/06/29 10:27:10;;;;;;;33.47;18.58;;;21.10;74.80;;;;;;5007361;28;20055;-70
2023/06/29 10:29:45;;;;;;;30.50;18.10;;;21.10;74.90;;;;;;5007545;28;20054;-70
2023/06/29 10:32:31;;;;;;;30.48;18.38;;;21.10;75.00;;;;;;5001306;28;20145;-71
2023/06/29 10:35:03;;;;;;;33.13;18.65;;;21.10;75.20;;;;;;5002583;28;20042;-70
2023/06/29 10:37:31;;;;;;;36.17;20.58;;;21.10;75.40;;;;;;5002268;28;20639;-70
2023/06/29 10:39:58;;;;;;;31.65;19.20;;;21.10;75.20;;;;;;5004775;28;20127;-70
2023/06/29 10:42:59;;;;;;;33.57;19.43;;;21.10;75.30;;;;;;4985878;28;20046;-69
2023/06/29 10:45:38;;;;;;;35.58;19.73;;;21.10;75.40;;;;;;4927857;29;20819;-69
2023/06/29 10:48:09;;;;;;;35.80;19.85;;;21.20;75.30;;;;;;4926509;28;20056;-69
2023/06/29 10:50:39;;;;;;;33.80;20.35;;;21.10;75.30;;;;;;4982913;28;20060;-69
2023/06/29 10:53:08;;;;;;;32.25;18.95;;;21.20;75.10;;;;;;5003707;28;20062;-69
2023/06/29 10:55:56;;;;;;;30.30;19.03;;;21.20;75.10;;;;;;5000164;28;20051;-69
2023/06/29 10:58:24;;;;;;;31.35;17.83;;;21.30;75.00;;;;;;5001082;28;20054;-70
2023/06/29 11:00:54;;;;;;;33.47;19.92;;;21.30;75.00;;;;;;4976607;28;20137;-69
2023/06/29 11:03:23;;;;;;;33.42;18.10;;;21.30;75.10;;;;;;5005183;28;20081;-70
2023/06/29 11:05:50;;;;;;;31.65;18.70;;;21.30;75.20;;;;;;5002090;28;20058;-69
2023/06/29 11:08:18;;;;;;;34.57;20.27;;;21.40;75.20;;;;;;5001754;28;20053;-69
2023/06/29 11:10:45;;;;;;;34.28;20.40;;;21.40;74.70;;;;;;5001431;28;20048;-69
2023/06/29 11:13:13;;;;;;;32.63;20.15;;;21.50;74.80;;;;;;5000198;28;20054;-69
2023/06/29 11:15:40;;;;;;;34.40;20.35;;;21.50;74.50;;;;;;5001036;28;20054;-68
2023/06/29 11:18:09;;;;;;;33.28;18.13;;;21.50;74.30;;;;;;4997530;28;20054;-69
2023/06/29 11:20:39;;;;;;;32.03;18.53;;;21.50;74.40;;;;;;5002553;28;20058;-68
2023/06/29 11:23:07;;;;;;;34.53;19.85;;;21.50;74.80;;;;;;5022314;28;20061;-69
2023/06/29 11:25:35;;;;;;;34.72;20.60;;;21.60;74.50;;;;;;5011191;28;20045;-69
2023/06/29 11:28:03;;;;;;;33.80;20.17;;;21.60;74.90;;;;;;5007451;28;20050;-68
2023/06/29 11:30:30;;;;;;;34.42;21.42;;;21.70;75.00;;;;;;5011923;28;20057;-68
2023/06/29 11:32:57;;;;;;;33.93;20.43;;;21.70;75.00;;;;;;5003750;28;20584;-68
2023/06/29 11:35:25;;;;;;;35.58;21.05;;;21.70;75.10;;;;;;5003017;28;20057;-68
2023/06/29 11:38:00;;;;;;;33.55;19.17;;;21.80;74.70;;;;;;4996659;28;20055;-69
2023/06/29 11:40:27;;;;;;;32.20;18.15;;;21.90;74.70;;;;;;4997146;28;20390;-69
2023/06/29 11:42:54;;;;;;;34.65;21.55;;;21.90;74.90;;;;;;4994885;28;20058;-69
2023/06/29 11:45:22;;;;;;;37.80;21.20;;;21.90;74.50;;;;;;4995103;28;20081;-69
2023/06/29 11:47:55;;;;;;;32.00;19.08;;;21.90;74.10;;;;;;4999528;28;20548;-69
2023/06/29 11:50:23;;;;;;;34.78;20.63;;;22.00;74.10;;;;;;5001125;28;20144;-69
2023/06/29 11:52:52;;;;;;;35.00;21.20;;;22.00;74.50;;;;;;5018635;28;20069;-69
2023/06/29 11:55:19;;;;;;;36.85;20.70;;;22.00;74.50;;;;;;5016753;28;20072;-69
2023/06/29 11:57:51;;;;;;;31.90;21.00;;;22.00;74.40;;;;;;5008053;28;20062;-69
2023/06/29 12:00:32;;;;;;;31.75;16.75;;;22.10;74.50;;;;;;5008878;28;20497;-69
2023/06/29 12:03:07;;;;;;;33.97;20.77;;;22.10;74.80;;;;;;5008392;28;20053;-69
2023/06/29 12:05:34;;;;;;;34.10;21.33;;;22.20;73.60;;;;;;5006826;28;20043;-68
2023/06/29 12:08:07;;;;;;;36.58;21.95;;;22.30;73.30;;;;;;5005002;28;20054;-69
2023/06/29 12:10:36;;;;;;;33.57;19.37;;;22.30;72.80;;;;;;5005531;28;20448;-69
2023/06/29 12:13:04;;;;;;;35.45;20.98;;;22.40;72.50;;;;;;4999674;28;20137;-69
2023/06/29 12:15:32;;;;;;;34.17;21.45;;;22.50;72.30;;;;;;5005537;28;20429;-69
2023/06/29 12:18:11;;;;;;;34.67;22.13;;;22.50;71.90;;;;;;5009790;28;20046;-69
2023/06/29 12:20:43;;;;;;;32.45;20.98;;;22.50;71.50;;;;;;5006261;28;20056;-69
2023/06/29 12:23:13;;;;;;;34.40;21.87;;;22.50;70.70;;;;;;5006230;28;20050;-68
2023/06/29 12:25:45;;;;;;;31.10;19.15;;;22.60;70.20;;;;;;5008050;28;20053;-68
2023/06/29 12:28:12;;;;;;;32.03;18.65;;;22.60;69.60;;;;;;5006362;28;20526;-68
2023/06/29 12:30:40;;;;;;;31.92;19.25;;;22.70;69.90;;;;;;5008257;28;20054;-71
2023/06/29 12:33:08;;;;;;;29.23;17.63;;;22.70;69.30;;;;;;5004902;28;20105;-71